Time;durP1;ratioP1;P1;durP2;ratioP2;P2;SDS_P1;SDS_P2;PMS_P1;PMS_P2;Temp;Humidity;BMP_temperature;BMP_pressure;BME280_temperature;BME280_humidity;BME280_pressure;Samples;Min_cycle;Max_cycle;Signal;HPM_P1;HPM_P2
2023/05/19 00:02:19;;;;;;;10.75;4.65;;;;;;;-142.57;100.00;115900.28;4920761;29;20482;-83
2023/05/19 00:04:46;;;;;;;7.32;4.18;;;;;;;-142.57;100.00;115900.28;4920785;29;20036;-85
2023/05/19 00:07:18;;;;;;;12.98;4.32;;;;;;;-142.57;100.00;115900.28;4919740;29;20047;-86
2023/05/19 00:09:49;;;;;;;9.77;4.28;;;;;;;-142.57;100.00;115900.28;4920154;29;20220;-85
2023/05/19 00:12:15;;;;;;;7.40;3.30;;;;;;;-142.57;100.00;115900.28;4924301;29;20471;-86
2023/05/19 00:14:43;;;;;;;8.40;2.65;;;;;;;-142.57;100.00;115900.28;4906783;29;20036;-83
2023/05/19 00:17:13;;;;;;;8.32;3.00;;;;;;;-142.57;100.00;115900.28;4928196;29;20063;-86
2023/05/19 00:19:39;;;;;;;11.63;2.78;;;;;;;-142.57;100.00;115900.28;4929171;29;20084;-85
2023/05/19 00:22:06;;;;;;;7.68;2.75;;;;;;;-142.57;100.00;115900.28;4924076;29;20051;-87
2023/05/19 00:24:32;;;;;;;15.85;3.15;;;;;;;-142.57;100.00;115900.28;4904667;29;20032;-81
2023/05/19 00:26:58;;;;;;;5.90;2.85;;;;;;;-142.57;100.00;115900.28;4920856;29;20047;-86
2023/05/19 00:29:25;;;;;;;6.18;2.60;;;;;;;-142.57;100.00;115900.28;4923120;29;20148;-87
2023/05/19 00:31:53;;;;;;;9.95;2.55;;;;;;;-142.57;100.00;115900.28;4920577;29;20041;-83
2023/05/19 00:34:18;;;;;;;5.72;2.53;;;;;;;-142.57;100.00;115900.28;4920471;29;20032;-87
2023/05/19 00:36:44;;;;;;;9.25;2.85;;;;;;;-142.57;100.00;115900.28;4903200;29;20044;-88
2023/05/19 00:39:15;;;;;;;5.32;2.70;;;;;;;-142.57;100.00;115900.28;4920403;29;20546;-86
2023/05/19 00:41:41;;;;;;;7.93;3.08;;;;;;;-142.57;100.00;115900.28;4919538;29;20087;-88
2023/05/19 00:44:07;;;;;;;7.10;2.92;;;;;;;-142.57;100.00;115900.28;4918655;29;20028;-88
2023/05/19 00:46:36;;;;;;;8.13;2.80;;;;;;;-142.57;100.00;115900.28;4919417;29;20040;-86
2023/05/19 00:49:02;;;;;;;14.80;2.80;;;;;;;-142.57;100.00;115900.28;4901634;29;20144;-86
2023/05/19 00:51:28;;;;;;;15.07;3.22;;;;;;;-142.57;100.00;115900.28;4903002;29;20036;-85
2023/05/19 00:53:56;;;;;;;4.40;2.80;;;;;;;-142.57;100.00;115900.28;4921083;29;20044;-87
2023/05/19 00:56:25;;;;;;;5.68;3.13;;;;;;;-142.57;100.00;115900.28;4923683;29;20086;-85
2023/05/19 00:58:52;;;;;;;9.63;2.90;;;;;;;-142.57;100.00;115900.28;4922746;29;20067;-84
2023/05/19 01:01:20;;;;;;;4.43;2.95;;;;;;;-142.57;100.00;115900.28;4924282;29;20119;-86
2023/05/19 01:03:46;;;;;;;6.38;3.00;;;;;;;-142.57;100.00;115900.28;4924542;29;20136;-84
2023/05/19 01:06:13;;;;;;;13.25;4.05;;;;;;;-142.57;100.00;115900.28;4922839;29;20040;-87
2023/05/19 01:08:39;;;;;;;7.70;3.70;;;;;;;-142.57;100.00;115900.28;4923216;29;20614;-87
2023/05/19 01:11:06;;;;;;;9.07;4.65;;;;;;;-142.57;100.00;115900.28;4906376;29;20044;-86
2023/05/19 01:13:33;;;;;;;10.98;5.13;;;;;;;-142.57;100.00;115900.28;4922696;29;20414;-85
2023/05/19 01:16:29;;;;;;;6.70;4.05;;;;;;;-142.57;100.00;115900.28;4921928;29;20038;-88
2023/05/19 01:19:15;;;;;;;11.70;4.57;;;;;;;-142.57;100.00;115900.28;4904817;29;20069;-86
2023/05/19 01:22:06;;;;;;;10.65;4.63;;;;;;;-142.57;100.00;115900.28;4905918;29;20051;-84
2023/05/19 01:25:04;;;;;;;13.63;4.28;;;;;;;-142.57;100.00;115900.28;4921941;29;20036;-86
2023/05/19 01:28:07;;;;;;;5.82;3.70;;;;;;;-142.57;100.00;115900.28;4880722;29;20056;-87
2023/05/19 01:30:39;;;;;;;6.22;3.67;;;;;;;-142.57;100.00;115900.28;4920711;29;20522;-86
2023/05/19 01:33:07;;;;;;;9.45;4.30;;;;;;;-142.57;100.00;115900.28;4921693;29;20063;-87
2023/05/19 01:35:35;;;;;;;12.90;4.30;;;;;;;-142.57;100.00;115900.28;4921964;29;20036;-88
2023/05/19 01:38:03;;;;;;;8.38;4.20;;;;;;;-142.57;100.00;115900.28;4921526;29;20036;-87
2023/05/19 01:40:29;;;;;;;6.28;4.15;;;;;;;-142.57;100.00;115900.28;4888429;29;20036;-86
2023/05/19 01:42:57;;;;;;;12.88;3.78;;;;;;;-142.57;100.00;115900.28;4920853;29;20071;-83
2023/05/19 01:45:26;;;;;;;7.68;4.30;;;;;;;-142.57;100.00;115900.28;4903626;29;20044;-85
2023/05/19 01:47:55;;;;;;;10.93;4.28;;;;;;;-142.57;100.00;115900.28;4920342;29;20070;-86
2023/05/19 01:50:21;;;;;;;7.65;4.05;;;;;;;-142.57;100.00;115900.28;4920502;29;20103;-85
2023/05/19 01:52:48;;;;;;;7.28;4.10;;;;;;;-142.57;100.00;115900.28;4907479;29;20044;-83
2023/05/19 01:55:14;;;;;;;7.45;3.60;;;;;;;-142.57;100.00;115900.28;4912983;29;20470;-84
2023/05/19 01:57:58;;;;;;;7.95;3.80;;;;;;;-142.57;100.00;115900.28;4903500;29;20075;-85
2023/05/19 02:00:44;;;;;;;6.53;3.85;;;;;;;-142.57;100.00;115900.28;4888609;29;20039;-83
2023/05/19 02:03:39;;;;;;;6.28;4.05;;;;;;;-142.57;100.00;115900.28;4825479;29;20079;-87
2023/05/19 02:06:26;;;;;;;6.80;4.53;;;;;;;-142.57;100.00;115900.28;4825468;29;20185;-87
2023/05/19 02:09:12;;;;;;;11.15;4.78;;;;;;;-142.57;100.00;115900.28;4809242;29;20047;-84
2023/05/19 02:11:45;;;;;;;11.27;4.75;;;;;;;-142.57;100.00;115900.28;4809642;29;20148;-86
2023/05/19 02:14:34;;;;;;;7.30;4.65;;;;;;;-142.57;100.00;115900.28;4845214;29;20051;-86
2023/05/19 02:17:02;;;;;;;10.10;5.45;;;;;;;-142.57;100.00;115900.28;4902340;29;20046;-86
2023/05/19 02:19:32;;;;;;;10.18;5.32;;;;;;;-142.57;100.00;115900.28;4902228;29;20032;-83
2023/05/19 02:21:57;;;;;;;12.20;5.38;;;;;;;-142.57;100.00;115900.28;4902481;29;20064;-85
2023/05/19 02:24:24;;;;;;;10.50;5.60;;;;;;;-142.57;100.00;115900.28;4919401;29;20096;-85
2023/05/19 02:26:51;;;;;;;15.90;6.30;;;;;;;-142.57;100.00;115900.28;4919024;29;20127;-84
2023/05/19 02:29:18;;;;;;;10.43;6.47;;;;;;;-142.57;100.00;115900.28;4901773;29;20036;-85
2023/05/19 02:31:43;;;;;;;14.35;5.68;;;;;;;-142.57;100.00;115900.28;4918808;29;20068;-85
2023/05/19 02:34:09;;;;;;;10.27;6.05;;;;;;;-142.57;100.00;115900.28;4918965;29;20075;-84
2023/05/19 02:36:37;;;;;;;10.77;6.32;;;;;;;-142.57;100.00;115900.28;4920569;29;20524;-86
2023/05/19 02:39:03;;;;;;;10.20;6.45;;;;;;;-142.57;100.00;115900.28;4901159;29;20032;-83
2023/05/19 02:41:30;;;;;;;12.30;6.30;;;;;;;-142.57;100.00;115900.28;4918671;29;20028;-83
2023/05/19 02:43:58;;;;;;;15.38;6.40;;;;;;;-142.57;100.00;115900.28;4918898;29;20060;-85
2023/05/19 02:46:24;;;;;;;10.13;6.90;;;;;;;-142.57;100.00;115900.28;4902103;29;20080;-86
2023/05/19 02:48:50;;;;;;;10.02;6.35;;;;;;;-142.57;100.00;115900.28;4902126;29;20098;-87
2023/05/19 02:51:16;;;;;;;10.82;6.60;;;;;;;-142.57;100.00;115900.28;4919222;29;20126;-86
2023/05/19 02:53:41;;;;;;;13.60;6.50;;;;;;;-142.57;100.00;115900.28;4902373;29;20494;-84
2023/05/19 02:56:07;;;;;;;16.55;7.03;;;;;;;-142.57;100.00;115900.28;4919313;29;20056;-86
2023/05/19 02:58:32;;;;;;;14.57;7.30;;;;;;;-142.57;100.00;115900.28;4920015;29;20036;-85
2023/05/19 03:00:58;;;;;;;11.07;6.63;;;;;;;-142.57;100.00;115900.28;4935898;29;20024;-82
2023/05/19 03:03:24;;;;;;;13.13;5.13;;;;;;;-142.57;100.00;115900.28;4906078;29;20040;-83
2023/05/19 03:05:50;;;;;;;9.63;5.65;;;;;;;-142.57;100.00;115900.28;4919099;29;20036;-84
2023/05/19 03:08:16;;;;;;;13.15;5.95;;;;;;;-142.57;100.00;115900.28;4917743;29;20051;-86
2023/05/19 03:10:41;;;;;;;10.88;5.53;;;;;;;-142.57;100.00;115900.28;4921613;29;20056;-84
2023/05/19 03:13:07;;;;;;;15.75;5.60;;;;;;;-142.57;100.00;115900.28;4917630;29;20032;-83
2023/05/19 03:15:33;;;;;;;10.60;5.47;;;;;;;-142.57;100.00;115900.28;4917429;29;20028;-83
2023/05/19 03:17:58;;;;;;;10.40;4.55;;;;;;;-142.57;100.00;115900.28;4901574;29;20176;-84
2023/05/19 03:20:24;;;;;;;9.65;4.32;;;;;;;-142.57;100.00;115900.28;4918179;29;20040;-85
2023/05/19 03:22:49;;;;;;;11.15;5.00;;;;;;;-142.57;100.00;115900.28;4918337;29;20051;-85
2023/05/19 03:25:15;;;;;;;9.65;5.13;;;;;;;-142.57;100.00;115900.28;4919109;29;20115;-84
2023/05/19 03:27:41;;;;;;;8.50;5.03;;;;;;;-142.57;100.00;115900.28;4900560;29;20138;-84
2023/05/19 03:30:07;;;;;;;19.52;4.85;;;;;;;-142.57;100.00;115900.28;4917622;29;20044;-85
2023/05/19 03:32:41;;;;;;;11.60;4.97;;;;;;;-142.57;100.00;115900.28;4921717;29;20466;-85
2023/05/19 03:35:10;;;;;;;8.63;4.60;;;;;;;-142.57;100.00;115900.28;4920160;29;20055;-84
2023/05/19 03:37:35;;;;;;;12.73;5.15;;;;;;;-142.57;100.00;115900.28;4925969;29;20092;-84
2023/05/19 03:40:02;;;;;;;7.70;5.03;;;;;;;-142.57;100.00;115900.28;4901473;29;20024;-85
2023/05/19 03:42:29;;;;;;;9.63;4.75;;;;;;;-142.57;100.00;115900.28;4900057;29;20400;-84
2023/05/19 03:44:54;;;;;;;10.68;5.25;;;;;;;-142.57;100.00;115900.28;4899940;29;20032;-85
2023/05/19 03:47:21;;;;;;;12.20;5.25;;;;;;;-142.57;100.00;115900.28;4899970;29;20120;-86
2023/05/19 03:50:00;;;;;;;13.20;5.45;;;;;;;-142.57;100.00;115900.28;4901957;29;20047;-85
2023/05/19 03:52:45;;;;;;;9.13;4.82;;;;;;;-142.57;100.00;115900.28;4925418;29;20062;-85
2023/05/19 03:55:28;;;;;;;13.13;4.88;;;;;;;-142.57;100.00;115900.28;4917114;29;20036;-84
2023/05/19 03:57:55;;;;;;;10.15;4.82;;;;;;;-142.57;100.00;115900.28;4918809;29;20080;-85
2023/05/19 04:00:21;;;;;;;11.90;4.70;;;;;;;-142.57;100.00;115900.28;4907589;29;20443;-88
2023/05/19 04:02:48;;;;;;;8.60;4.43;;;;;;;-142.57;100.00;115900.28;4918449;29;20043;-86
2023/05/19 04:05:14;;;;;;;5.78;3.78;;;;;;;-142.57;100.00;115900.28;4931447;29;20036;-86
2023/05/19 04:07:40;;;;;;;9.10;4.47;;;;;;;-142.57;100.00;115900.28;4912295;29;20096;-85
2023/05/19 04:10:06;;;;;;;6.32;3.95;;;;;;;-142.57;100.00;115900.28;4929970;29;20060;-86
2023/05/19 04:12:31;;;;;;;6.20;4.40;;;;;;;-142.57;100.00;115900.28;4912941;29;20044;-84
2023/05/19 04:14:57;;;;;;;7.15;4.30;;;;;;;-142.57;100.00;115900.28;4929338;29;20450;-83
2023/05/19 04:17:25;;;;;;;10.38;4.70;;;;;;;-142.57;100.00;115900.28;4912540;29;20127;-83
2023/05/19 04:19:54;;;;;;;7.13;4.45;;;;;;;-142.57;100.00;115900.28;4906687;29;20033;-86
2023/05/19 04:22:21;;;;;;;7.50;4.68;;;;;;;-142.57;100.00;115900.28;4888887;29;20130;-84
2023/05/19 04:24:47;;;;;;;10.98;5.25;;;;;;;-142.57;100.00;115900.28;4901463;29;20044;-84
2023/05/19 04:27:15;;;;;;;10.90;5.70;;;;;;;-142.57;100.00;115900.28;4900400;29;20040;-85
2023/05/19 04:29:40;;;;;;;14.65;5.57;;;;;;;-142.57;100.00;115900.28;4900466;29;20039;-83
2023/05/19 04:32:07;;;;;;;8.63;4.53;;;;;;;-142.57;100.00;115900.28;4918079;29;20033;-86
2023/05/19 04:34:34;;;;;;;9.98;6.03;;;;;;;-142.57;100.00;115900.28;4900659;29;20058;-87
2023/05/19 04:37:03;;;;;;;10.00;6.10;;;;;;;-142.57;100.00;115900.28;4902814;29;20040;-85
2023/05/19 04:39:28;;;;;;;9.20;6.00;;;;;;;-142.57;100.00;115900.28;4904959;29;20040;-81
2023/05/19 04:41:55;;;;;;;12.75;6.55;;;;;;;-142.57;100.00;115900.28;4922677;29;20020;-84
2023/05/19 04:44:22;;;;;;;11.55;6.00;;;;;;;-142.57;100.00;115900.28;4897978;29;20047;-85
2023/05/19 04:46:52;;;;;;;9.43;6.80;;;;;;;-142.57;100.00;115900.28;4907945;29;20044;-84
2023/05/19 04:49:19;;;;;;;15.13;7.68;;;;;;;-142.57;100.00;115900.28;4904294;29;20040;-87
2023/05/19 04:51:49;;;;;;;9.98;6.75;;;;;;;-142.57;100.00;115900.28;4900618;29;20493;-86
2023/05/19 04:54:18;;;;;;;;;;;;;;;-142.57;100.00;115900.28;4917755;29;20096;-87
2023/05/19 04:56:46;;;;;;;15.70;7.10;;;;;;;-142.57;100.00;115900.28;4899585;29;20265;-88
2023/05/19 04:59:12;;;;;;;14.68;7.13;;;;;;;-142.57;100.00;115900.28;4901133;29;20047;-82
2023/05/19 05:01:39;;;;;;;11.40;6.78;;;;;;;-142.57;100.00;115900.28;4918803;29;20047;-85
2023/05/19 05:04:06;;;;;;;10.50;6.82;;;;;;;-142.57;100.00;115900.28;4917850;29;20119;-86
2023/05/19 05:06:32;;;;;;;13.48;7.55;;;;;;;-142.57;100.00;115900.28;4900384;29;20028;-88
2023/05/19 05:08:58;;;;;;;10.27;7.13;;;;;;;-142.57;100.00;115900.28;4885405;29;20043;-85
2023/05/19 05:11:25;;;;;;;12.52;7.43;;;;;;;-142.57;100.00;115900.28;4901885;29;20036;-84
2023/05/19 05:13:51;;;;;;;17.17;8.43;;;;;;;-142.57;100.00;115900.28;4899893;29;20085;-88
2023/05/19 05:16:17;;;;;;;13.45;7.90;;;;;;;-142.57;100.00;115900.28;4899817;29;20024;-83
2023/05/19 05:18:43;;;;;;;11.93;7.63;;;;;;;-142.57;100.00;115900.28;4916699;29;20070;-86
2023/05/19 05:21:09;;;;;;;11.52;8.52;;;;;;;-142.57;100.00;115900.28;4884231;29;20084;-84
2023/05/19 05:23:35;;;;;;;19.02;9.45;;;;;;;-142.57;100.00;115900.28;4898680;29;20526;-83
2023/05/19 05:26:21;;;;;;;19.10;9.40;;;;;;;-142.57;100.00;115900.28;4899195;29;20128;-84
2023/05/19 05:28:49;;;;;;;23.95;10.48;;;;;;;-142.57;100.00;115900.28;4895539;29;20043;-83
2023/05/19 05:31:17;;;;;;;17.52;10.07;;;;;;;-142.57;100.00;115900.28;4899406;29;20496;-83
2023/05/19 05:33:44;;;;;;;15.02;9.73;;;;;;;-142.57;100.00;115900.28;4899435;29;20389;-82
2023/05/19 05:36:10;;;;;;;15.70;9.20;;;;;;;-142.57;100.00;115900.28;4899588;29;20458;-82
2023/05/19 05:38:35;;;;;;;20.45;10.77;;;;;;;-142.57;100.00;115900.28;4899173;29;20118;-83
2023/05/19 05:41:02;;;;;;;19.23;9.18;;;;;;;-142.57;100.00;115900.28;4902962;29;20040;-82
2023/05/19 05:43:32;;;;;;;17.70;9.02;;;;;;;-142.57;100.00;115900.28;4901614;29;20032;-84
2023/05/19 05:46:01;;;;;;;18.52;9.82;;;;;;;-142.57;100.00;115900.28;4903186;29;20040;-83
2023/05/19 05:48:27;;;;;;;15.70;8.68;;;;;;;-142.57;100.00;115900.28;4903883;29;20048;-89
2023/05/19 05:50:55;;;;;;;13.57;8.68;;;;;;;-142.57;100.00;115900.28;4902737;29;20068;-86
2023/05/19 05:53:25;;;;;;;16.42;9.35;;;;;;;-142.57;100.00;115900.28;4903368;29;20679;-85
2023/05/19 05:55:53;;;;;;;19.73;8.65;;;;;;;-142.57;100.00;115900.28;4902939;29;20039;-85
2023/05/19 05:58:21;;;;;;;45.05;21.30;;;;;;;-142.57;100.00;115900.28;4901999;29;20123;-83
2023/05/19 06:00:48;;;;;;;14.57;9.43;;;;;;;-142.57;100.00;115900.28;4919376;29;20064;-86
2023/05/19 06:03:15;;;;;;;16.38;9.05;;;;;;;-142.57;100.00;115900.28;4902307;29;20033;-85
2023/05/19 06:05:42;;;;;;;16.65;8.90;;;;;;;-142.57;100.00;115900.28;4919519;29;20372;-85
2023/05/19 06:08:08;;;;;;;16.42;8.38;;;;;;;-142.57;100.00;115900.28;4902790;29;20490;-83
2023/05/19 06:10:35;;;;;;;15.55;8.35;;;;;;;-142.57;100.00;115900.28;4887018;29;20029;-83
2023/05/19 06:13:01;;;;;;;11.80;7.30;;;;;;;-142.57;100.00;115900.28;4902274;29;20078;-84
2023/05/19 06:15:27;;;;;;;14.82;7.93;;;;;;;-142.57;100.00;115900.28;4902449;29;20130;-83
2023/05/19 06:18:06;;;;;;;12.50;7.78;;;;;;;-142.57;100.00;115900.28;4903076;29;20055;-82
2023/05/19 06:20:31;;;;;;;13.23;7.85;;;;;;;-142.57;100.00;115900.28;4918906;29;20032;-84
2023/05/19 06:22:57;;;;;;;12.00;7.60;;;;;;;-142.57;100.00;115900.28;4902347;29;20033;-84
2023/05/19 06:25:25;;;;;;;12.80;7.97;;;;;;;-142.57;100.00;115900.28;4901575;29;20032;-83
2023/05/19 06:27:51;;;;;;;13.35;8.40;;;;;;;-142.57;100.00;115900.28;4901588;29;20036;-82
2023/05/19 06:30:16;;;;;;;14.20;7.22;;;;;;;-142.57;100.00;115900.28;4919065;29;20047;-84
2023/05/19 06:33:00;;;;;;;12.63;7.78;;;;;;;-142.57;100.00;115900.28;4901763;29;20406;-85
2023/05/19 06:35:26;;;;;;;13.95;8.48;;;;;;;-142.57;100.00;115900.28;4902871;29;20044;-85
2023/05/19 06:37:52;;;;;;;13.00;8.07;;;;;;;-142.57;100.00;115900.28;4902268;29;20059;-85
2023/05/19 06:40:19;;;;;;;14.57;7.55;;;;;;;-142.57;100.00;115900.28;4901808;29;20091;-85
2023/05/19 06:42:47;;;;;;;13.18;7.70;;;;;;;-142.57;100.00;115900.28;4901907;29;20028;-83
2023/05/19 06:45:26;;;;;;;14.45;7.15;;;;;;;-142.57;100.00;115900.28;4888404;29;20470;-85
2023/05/19 06:47:52;;;;;;;11.98;7.50;;;;;;;-142.57;100.00;115900.28;4904125;29;20051;-82
2023/05/19 06:50:18;;;;;;;13.90;8.75;;;;;;;-142.57;100.00;115900.28;4902482;29;20040;-84
2023/05/19 06:52:46;;;;;;;11.30;7.50;;;;;;;-142.57;100.00;115900.28;4903519;29;20130;-83
2023/05/19 06:55:11;;;;;;;12.13;6.68;;;;;;;-142.57;100.00;115900.28;4901932;29;20071;-84
2023/05/19 06:57:37;;;;;;;10.82;7.35;;;;;;;-142.57;100.00;115900.28;4901480;29;20036;-83
2023/05/19 07:00:07;;;;;;;10.68;6.07;;;;;;;-142.57;100.00;115900.28;4901767;29;20088;-83
2023/05/19 07:02:33;;;;;;;8.05;5.75;;;;;;;-142.57;100.00;115900.28;4901428;29;20079;-84
2023/05/19 07:04:58;;;;;;;11.07;5.57;;;;;;;-142.57;100.00;115900.28;4901423;29;20067;-85
2023/05/19 07:07:25;;;;;;;11.77;5.95;;;;;;;-142.57;100.00;115900.28;4901705;29;20497;-84
2023/05/19 07:09:51;;;;;;;14.25;6.25;;;;;;;-142.57;100.00;115900.28;4901602;29;20051;-85
2023/05/19 07:12:17;;;;;;;10.55;6.35;;;;;;;-142.57;100.00;115900.28;4901283;29;20482;-84
2023/05/19 07:14:43;;;;;;;10.77;6.18;;;;;;;-142.57;100.00;115900.28;4901437;29;20084;-83
2023/05/19 07:17:09;;;;;;;10.23;6.32;;;;;;;-142.57;100.00;115900.28;4901193;29;20032;-83
2023/05/19 07:19:39;;;;;;;15.68;6.00;;;;;;;-142.57;100.00;115900.28;4901593;29;20038;-83
2023/05/19 07:22:05;;;;;;;14.23;6.00;;;;;;;-142.57;100.00;115900.28;4901268;29;20131;-82
2023/05/19 07:24:30;;;;;;;9.90;5.88;;;;;;;-142.57;100.00;115900.28;4901221;29;20055;-83
2023/05/19 07:26:56;;;;;;;8.27;5.20;;;;;;;-142.57;100.00;115900.28;4900899;29;20115;-82
2023/05/19 07:29:22;;;;;;;9.90;5.28;;;;;;;-142.57;100.00;115900.28;4900880;29;20036;-83
2023/05/19 07:31:52;;;;;;;9.38;5.15;;;;;;;-142.57;100.00;115900.28;4917544;29;20039;-82
2023/05/19 07:34:21;;;;;;;8.82;5.40;;;;;;;-142.57;100.00;115900.28;4917902;29;20036;-82
2023/05/19 07:36:47;;;;;;;10.05;5.95;;;;;;;-142.57;100.00;115900.28;4917481;29;20088;-82
2023/05/19 07:39:13;;;;;;;8.38;5.72;;;;;;;-142.57;100.00;115900.28;4897869;29;20040;-84
2023/05/19 07:41:38;;;;;;;10.70;6.10;;;;;;;-142.57;100.00;115900.28;4919211;29;20040;-82
2023/05/19 07:44:06;;;;;;;9.57;5.72;;;;;;;-142.57;100.00;115900.28;4924438;29;20158;-82
2023/05/19 07:46:35;;;;;;;10.43;6.78;;;;;;;-142.57;100.00;115900.28;4928187;29;20499;-83
2023/05/19 07:49:00;;;;;;;12.48;6.60;;;;;;;-142.57;100.00;115900.28;4905216;29;20506;-83
2023/05/19 07:51:26;;;;;;;11.73;6.30;;;;;;;-142.57;100.00;115900.28;4918006;29;20126;-82
2023/05/19 07:54:11;;;;;;;12.20;6.22;;;;;;;-142.57;100.00;115900.28;4902378;29;20040;-84
2023/05/19 07:56:36;;;;;;;21.40;6.32;;;;;;;-142.57;100.00;115900.28;4917608;29;20043;-82
2023/05/19 07:59:03;;;;;;;12.70;5.40;;;;;;;-142.57;100.00;115900.28;4917990;29;20115;-86
2023/05/19 08:01:30;;;;;;;11.40;6.40;;;;;;;-142.57;100.00;115900.28;4917315;29;20024;-84
2023/05/19 08:03:55;;;;;;;14.98;6.90;;;;;;;-142.57;100.00;115900.28;4917663;29;20032;-85
2023/05/19 08:06:21;;;;;;;9.23;6.47;;;;;;;-142.57;100.00;115900.28;4917670;29;20032;-84
2023/05/19 08:08:47;;;;;;;15.23;5.68;;;;;;;-142.57;100.00;115900.28;4917334;29;20095;-83
2023/05/19 08:11:12;;;;;;;10.00;6.05;;;;;;;-142.57;100.00;115900.28;4917036;29;20028;-84
2023/05/19 08:13:38;;;;;;;6.60;4.75;;;;;;;-142.57;100.00;115900.28;4918375;29;20032;-83
2023/05/19 08:16:04;;;;;;;7.78;5.00;;;;;;;-142.57;100.00;115900.28;4917429;29;20210;-84
2023/05/19 08:18:30;;;;;;;8.02;5.20;;;;;;;-142.57;100.00;115900.28;4916904;29;20146;-83
2023/05/19 08:20:55;;;;;;;10.20;5.72;;;;;;;-142.57;100.00;115900.28;4917020;29;20048;-83
2023/05/19 08:23:21;;;;;;;20.30;5.80;;;;;;;-142.57;100.00;115900.28;4915781;29;20417;-82
2023/05/19 08:25:46;;;;;;;9.75;5.60;;;;;;;-142.57;100.00;115900.28;4917921;29;20366;-82
2023/05/19 08:28:12;;;;;;;9.30;5.10;;;;;;;-142.57;100.00;115900.28;4916294;29;20040;-83
2023/05/19 08:30:38;;;;;;;9.70;5.53;;;;;;;-142.57;100.00;115900.28;4916841;29;20043;-82
2023/05/19 08:33:03;;;;;;;9.95;5.15;;;;;;;-142.57;100.00;115900.28;4916946;29;20047;-83
2023/05/19 08:35:29;;;;;;;11.02;5.50;;;;;;;-142.57;100.00;115900.28;4917473;29;20067;-84
2023/05/19 08:37:54;;;;;;;17.30;5.18;;;;;;;-142.57;100.00;115900.28;4917281;29;20024;-83
2023/05/19 08:40:21;;;;;;;6.75;5.25;;;;;;;-142.57;100.00;115900.28;4916971;29;20039;-83
2023/05/19 08:42:47;;;;;;;10.30;6.28;;;;;;;-142.57;100.00;115900.28;4917522;29;20046;-84
2023/05/19 08:45:13;;;;;;;9.50;5.57;;;;;;;-142.57;100.00;115900.28;4917751;29;20032;-82
2023/05/19 08:47:45;;;;;;;12.00;5.95;;;;;;;-142.57;100.00;115900.28;4916586;29;20040;-82
2023/05/19 08:50:13;;;;;;;17.05;5.85;;;;;;;-142.57;100.00;115900.28;4914193;29;20047;-83
2023/05/19 08:52:48;;;;;;;10.23;6.47;;;;;;;-142.57;100.00;115900.28;4917390;29;20035;-83
2023/05/19 08:55:35;;;;;;;18.10;7.38;;;;;;;-142.57;100.00;115900.28;4914787;29;20549;-84
2023/05/19 08:58:03;;;;;;;12.32;7.07;;;;;;;-142.57;100.00;115900.28;4913567;29;20046;-85
2023/05/19 09:00:30;;;;;;;39.65;9.73;;;;;;;-142.57;100.00;115900.28;4917880;29;20394;-83
2023/05/19 09:02:56;;;;;;;17.45;8.07;;;;;;;-142.57;100.00;115900.28;4916985;29;20083;-81
2023/05/19 09:05:23;;;;;;;12.65;7.70;;;;;;;-142.57;100.00;115900.28;4918114;29;20044;-82
2023/05/19 09:07:49;;;;;;;11.00;7.45;;;;;;;-142.57;100.00;115900.28;4914295;29;20040;-82
2023/05/19 09:10:15;;;;;;;11.48;8.35;;;;;;;-142.57;100.00;115900.28;4918301;29;20036;-81
2023/05/19 09:12:46;;;;;;;13.70;8.07;;;;;;;-142.57;100.00;115900.28;4936472;29;20040;-84
2023/05/19 09:15:15;;;;;;;10.77;7.50;;;;;;;-142.57;100.00;115900.28;4940050;29;20032;-81
2023/05/19 09:17:40;;;;;;;13.77;9.00;;;;;;;-142.57;100.00;115900.28;4937156;29;20032;-83
2023/05/19 09:20:10;;;;;;;13.32;8.25;;;;;;;-142.57;100.00;115900.28;4921173;29;20557;-84
2023/05/19 09:22:46;;;;;;;15.27;8.45;;;;;;;-142.57;100.00;115900.28;4920673;29;20047;-81
2023/05/19 09:25:18;;;;;;;14.45;8.40;;;;;;;-142.57;100.00;115900.28;4920209;29;20040;-83
2023/05/19 09:27:45;;;;;;;;;;;;;;;-142.57;100.00;115900.28;4915238;29;20067;-83
2023/05/19 09:30:11;;;;;;;13.30;7.45;;;;;;;-142.57;100.00;115900.28;4919574;29;19918;-83
2023/05/19 09:32:37;;;;;;;12.30;7.60;;;;;;;-142.57;100.00;115900.28;4919105;29;20031;-84
2023/05/19 09:35:03;;;;;;;11.48;7.15;;;;;;;-142.57;100.00;115900.28;4902668;29;20079;-82
2023/05/19 09:37:29;;;;;;;13.13;7.80;;;;;;;-142.57;100.00;115900.28;4921724;29;20044;-83
2023/05/19 09:39:55;;;;;;;12.50;6.88;;;;;;;-142.57;100.00;115900.28;4921953;29;20176;-84
2023/05/19 09:42:25;;;;;;;8.93;6.60;;;;;;;-142.57;100.00;115900.28;4904973;29;20423;-82
2023/05/19 09:45:11;;;;;;;9.25;6.03;;;;;;;-142.57;100.00;115900.28;4922865;29;20040;-83
2023/05/19 09:47:39;;;;;;;22.60;6.90;;;;;;;-142.57;100.00;115900.28;4921918;29;20559;-83
2023/05/19 09:50:09;;;;;;;12.00;7.45;;;;;;;-142.57;100.00;115900.28;4921656;29;20036;-82
2023/05/19 09:52:36;;;;;;;16.67;7.63;;;;;;;-142.57;100.00;115900.28;4921259;29;20040;-82
2023/05/19 09:55:03;;;;;;;16.15;8.50;;;;;;;-142.57;100.00;115900.28;4921008;29;20057;-84
2023/05/19 09:57:36;;;;;;;11.73;8.52;;;;;;;-142.57;100.00;115900.28;4903775;29;20078;-84
2023/05/19 10:00:16;;;;;;;14.25;8.38;;;;;;;-142.57;100.00;115900.28;4920681;29;20167;-84
2023/05/19 10:02:46;;;;;;;14.13;7.82;;;;;;;-142.57;100.00;115900.28;4920786;29;20044;-84
2023/05/19 10:05:18;;;;;;;16.73;9.00;;;;;;;-142.57;100.00;115900.28;4903279;29;20043;-82
2023/05/19 10:07:47;;;;;;;12.02;8.20;;;;;;;-142.57;100.00;115900.28;4920129;29;20052;-84
2023/05/19 10:10:13;;;;;;;12.35;8.75;;;;;;;-142.57;100.00;115900.28;4923258;29;20104;-82
2023/05/19 10:12:40;;;;;;;15.48;10.15;;;;;;;-142.57;100.00;115900.28;4927086;29;20110;-83
2023/05/19 10:15:11;;;;;;;15.40;9.82;;;;;;;-142.57;100.00;115900.28;4926682;29;20039;-83
2023/05/19 10:17:38;;;;;;;22.17;9.65;;;;;;;-142.57;100.00;115900.28;4908330;29;20032;-81
2023/05/19 10:20:09;;;;;;;18.02;10.07;;;;;;;-142.57;100.00;115900.28;4923813;29;20036;-82
2023/05/19 10:22:36;;;;;;;13.82;9.88;;;;;;;-142.57;100.00;115900.28;4917182;29;20051;-81
2023/05/19 10:25:03;;;;;;;16.27;10.02;;;;;;;-142.57;100.00;115900.28;4915992;29;20505;-81
2023/05/19 10:27:31;;;;;;;15.32;10.25;;;;;;;-142.57;100.00;115900.28;4919532;29;20076;-83
2023/05/19 10:30:03;;;;;;;17.05;10.82;;;;;;;-142.57;100.00;115900.28;4919646;29;20120;-82
2023/05/19 10:32:33;;;;;;;16.95;11.15;;;;;;;-142.57;100.00;115900.28;4920067;29;20032;-82
2023/05/19 10:35:06;;;;;;;15.25;10.85;;;;;;;-142.57;100.00;115900.28;4918909;29;20044;-80
2023/05/19 10:38:00;;;;;;;17.05;11.00;;;;;;;-142.57;100.00;115900.28;4919783;29;20052;-83
2023/05/19 10:40:49;;;;;;;18.33;11.65;;;;;;;-142.57;100.00;115900.28;4888703;29;20068;-83
2023/05/19 10:43:29;;;;;;;19.90;11.45;;;;;;;-142.57;100.00;115900.28;4876346;29;20103;-83
2023/05/19 10:45:56;;;;;;;14.18;10.43;;;;;;;-142.57;100.00;115900.28;4919959;29;20470;-82
2023/05/19 10:48:22;;;;;;;19.70;11.55;;;;;;;-142.57;100.00;115900.28;4919685;29;20095;-83
2023/05/19 10:50:48;;;;;;;15.77;10.40;;;;;;;-142.57;100.00;115900.28;4920891;29;20036;-83
2023/05/19 10:53:20;;;;;;;16.38;11.43;;;;;;;-142.57;100.00;115900.28;4923650;29;20095;-85
2023/05/19 10:55:54;;;;;;;;;;;;;;;-142.57;100.00;115900.28;4907958;29;20040;-83
2023/05/19 10:58:39;;;;;;;18.58;11.48;;;;;;;-142.57;100.00;115900.28;4921854;29;19930;-84
2023/05/19 11:01:16;;;;;;;16.98;11.07;;;;;;;-142.57;100.00;115900.28;4913646;29;20036;-84
2023/05/19 11:03:53;;;;;;;18.42;12.05;;;;;;;-142.57;100.00;115900.28;4893373;29;20032;-84
2023/05/19 11:06:23;;;;;;;18.48;12.88;;;;;;;-142.57;100.00;115900.28;4902915;29;20040;-81